首页
METAR-TAF:

METAR-TAF

机场 :

比尤特, 蒙大拿州, 美国

纬度: 45-57-17N, 经度: 112-29-51W, 海拔: 1690米

当前天气观测

该预报发布于1小时和7分钟前的15:53 UTC
静风
温度 18°C
湿度 39%
气压 1018 hPa
能見度: 16.1公里
天空无云

METAR: KBTM 241553Z AUTO 00000KT 10SM CLR 18/04 A3005 RMK AO2 SLP114 T01830044 $

时间: 11:00 (17:00 UTC)

预报

该预报发布于5小时和40分钟前的11:20 UTC
预报有效从24日的 12点(UTC)到 25日的 12点(UTC)
风速3节,风向
能見度: 10公里
天空无云
从 24日的 1700点(UTC)
风速9节,风向西
能見度: 10公里
天空无云
从 24日的 1800点(UTC)
风速15节,风向西,有时为25节阵风
能見度: 10公里
天空无云
从 25日的 0400点(UTC)
风速5节,风向西北
能見度: 10公里
天空无云

TAF: KBTM 241120Z 2412/2512 09003KT P6SM SKC FM241700 27009KT P6SM SKC FM241800 28015G25KT P6SM SKC FM250400 31005KT P6SM SKC

超过4000个机场的气象观测和天气预报(METAR&TAF报告)。

可查询的气象台以黄色和红色小点在地图上表示。

将鼠标移到小点上方,可查看气象台名称。

然后点击查看天气观测和预报。

如需切换地图:点击带黑十字的绿色按钮放大地图;点击带横线的绿色按钮缩小地图;或者点击绿色箭头查看邻近地区的地图。


METAR-TAF: